sensor_id;sensor_type;location;lat;lon;timestamp;temperature;humidity
13412;DHT22;67102;51.666;6.880;2023-04-01T00:00:09;14.60;87.80
13412;DHT22;67102;51.666;6.880;2023-04-01T00:02:35;14.60;88.20
13412;DHT22;67102;51.666;6.880;2023-04-01T00:17:14;14.50;89.30
13412;DHT22;67102;51.666;6.880;2023-04-01T00:19:40;14.50;89.40
13412;DHT22;67102;51.666;6.880;2023-04-01T00:22:06;14.50;89.90
13412;DHT22;67102;51.666;6.880;2023-04-01T00:26:58;14.40;90.10
13412;DHT22;67102;51.666;6.880;2023-04-01T00:34:18;14.50;90.30
13412;DHT22;67102;51.666;6.880;2023-04-01T00:36:43;14.40;90.20
13412;DHT22;67102;51.666;6.880;2023-04-01T00:44:16;14.30;90.30
13412;DHT22;67102;51.666;6.880;2023-04-01T00:46:43;14.20;90.20
13412;DHT22;67102;51.666;6.880;2023-04-01T00:51:38;13.60;90.00
13412;DHT22;67102;51.666;6.880;2023-04-01T00:54:05;14.30;90.20
13412;DHT22;67102;51.666;6.880;2023-04-01T00:56:34;14.30;90.20
13412;DHT22;67102;51.666;6.880;2023-04-01T00:59:04;14.30;90.30
13412;DHT22;67102;51.666;6.880;2023-04-01T01:01:34;14.30;90.40
13412;DHT22;67102;51.666;6.880;2023-04-01T01:06:38;14.20;90.30
13412;DHT22;67102;51.666;6.880;2023-04-01T01:09:15;14.30;90.40
13412;DHT22;67102;51.666;6.880;2023-04-01T01:11:51;14.30;90.40
13412;DHT22;67102;51.666;6.880;2023-04-01T01:14:29;14.30;90.20
13412;DHT22;67102;51.666;6.880;2023-04-01T01:17:07;14.30;90.20
13412;DHT22;67102;51.666;6.880;2023-04-01T01:19:52;14.30;90.20
13412;DHT22;67102;51.666;6.880;2023-04-01T01:22:39;14.30;90.10
13412;DHT22;67102;51.666;6.880;2023-04-01T01:25:20;14.40;90.10
13412;DHT22;67102;51.666;6.880;2023-04-01T01:28:00;14.30;90.20
13412;DHT22;67102;51.666;6.880;2023-04-01T01:30:41;14.40;90.40
13412;DHT22;67102;51.666;6.880;2023-04-01T01:33:35;14.30;90.40
13412;DHT22;67102;51.666;6.880;2023-04-01T01:36:15;14.30;90.60
13412;DHT22;67102;51.666;6.880;2023-04-01T01:38:43;14.30;90.60
13412;DHT22;67102;51.666;6.880;2023-04-01T01:41:11;14.10;90.60
13412;DHT22;67102;51.666;6.880;2023-04-01T01:43:40;14.20;90.70
13412;DHT22;67102;51.666;6.880;2023-04-01T01:46:11;14.20;90.80
13412;DHT22;67102;51.666;6.880;2023-04-01T01:48:42;14.20;90.90
13412;DHT22;67102;51.666;6.880;2023-04-01T01:51:09;14.20;90.80
13412;DHT22;67102;51.666;6.880;2023-04-01T01:53:36;14.20;91.00
13412;DHT22;67102;51.666;6.880;2023-04-01T01:56:03;14.10;91.10
13412;DHT22;67102;51.666;6.880;2023-04-01T01:58:32;14.10;91.20
13412;DHT22;67102;51.666;6.880;2023-04-01T02:01:01;14.10;91.20
13412;DHT22;67102;51.666;6.880;2023-04-01T02:03:30;14.10;91.30
13412;DHT22;67102;51.666;6.880;2023-04-01T02:06:00;14.00;91.40
13412;DHT22;67102;51.666;6.880;2023-04-01T02:08:30;14.00;91.50
13412;DHT22;67102;51.666;6.880;2023-04-01T02:11:01;17.80;92.60
13412;DHT22;67102;51.666;6.880;2023-04-01T02:13:32;14.10;91.60
13412;DHT22;67102;51.666;6.880;2023-04-01T02:16:06;14.00;91.70
13412;DHT22;67102;51.666;6.880;2023-04-01T02:18:36;14.10;91.70
13412;DHT22;67102;51.666;6.880;2023-04-01T02:21:05;14.00;91.70
13412;DHT22;67102;51.666;6.880;2023-04-01T02:23:33;14.00;91.80
13412;DHT22;67102;51.666;6.880;2023-04-01T02:26:03;14.00;91.90
13412;DHT22;67102;51.666;6.880;2023-04-01T02:28:31;14.00;91.80
13412;DHT22;67102;51.666;6.880;2023-04-01T02:30:59;13.90;91.80
13412;DHT22;67102;51.666;6.880;2023-04-01T02:33:27;13.90;91.80
13412;DHT22;67102;51.666;6.880;2023-04-01T02:40:48;13.90;91.80
13412;DHT22;67102;51.666;6.880;2023-04-01T02:43:17;13.90;91.80
13412;DHT22;67102;51.666;6.880;2023-04-01T02:45:43;13.90;91.70
13412;DHT22;67102;51.666;6.880;2023-04-01T02:48:09;13.90;91.70
13412;DHT22;67102;51.666;6.880;2023-04-01T02:50:35;13.90;91.70
13412;DHT22;67102;51.666;6.880;2023-04-01T02:53:01;13.90;91.70
13412;DHT22;67102;51.666;6.880;2023-04-01T02:55:27;13.90;91.70
13412;DHT22;67102;51.666;6.880;2023-04-01T02:57:53;13.90;91.70
13412;DHT22;67102;51.666;6.880;2023-04-01T03:00:21;13.90;91.60
13412;DHT22;67102;51.666;6.880;2023-04-01T03:07:40;13.90;91.70
13412;DHT22;67102;51.666;6.880;2023-04-01T03:10:07;10.10;90.60
13412;DHT22;67102;51.666;6.880;2023-04-01T03:12:33;13.90;91.80
13412;DHT22;67102;51.666;6.880;2023-04-01T03:17:27;14.00;91.90
13412;DHT22;67102;51.666;6.880;2023-04-01T03:22:19;13.90;91.80
13412;DHT22;67102;51.666;6.880;2023-04-01T03:24:45;14.00;91.80
13412;DHT22;67102;51.666;6.880;2023-04-01T03:29:37;14.00;91.70
13412;DHT22;67102;51.666;6.880;2023-04-01T03:32:03;14.00;91.80
13412;DHT22;67102;51.666;6.880;2023-04-01T03:34:30;13.90;91.80
13412;DHT22;67102;51.666;6.880;2023-04-01T03:36:57;13.90;91.70
13412;DHT22;67102;51.666;6.880;2023-04-01T03:46:42;14.00;91.80
13412;DHT22;67102;51.666;6.880;2023-04-01T03:51:35;14.00;91.80
13412;DHT22;67102;51.666;6.880;2023-04-01T03:54:01;14.10;91.80
13412;DHT22;67102;51.666;6.880;2023-04-01T03:56:28;14.00;91.90
13412;DHT22;67102;51.666;6.880;2023-04-01T04:01:21;14.00;91.70
13412;DHT22;67102;51.666;6.880;2023-04-01T04:03:48;14.00;91.80
13412;DHT22;67102;51.666;6.880;2023-04-01T04:08:43;14.00;91.70
13412;DHT22;67102;51.666;6.880;2023-04-01T04:13:35;13.90;91.70
13412;DHT22;67102;51.666;6.880;2023-04-01T04:23:21;14.10;91.70
13412;DHT22;67102;51.666;6.880;2023-04-01T04:25:56;14.10;91.90
13412;DHT22;67102;51.666;6.880;2023-04-01T04:28:22;14.10;91.80
13412;DHT22;67102;51.666;6.880;2023-04-01T04:30:48;14.10;91.80
13412;DHT22;67102;51.666;6.880;2023-04-01T04:35:41;14.20;91.80
13412;DHT22;67102;51.666;6.880;2023-04-01T04:40:33;14.20;91.80
13412;DHT22;67102;51.666;6.880;2023-04-01T04:43:00;14.20;91.80
13412;DHT22;67102;51.666;6.880;2023-04-01T04:47:52;14.10;91.90
13412;DHT22;67102;51.666;6.880;2023-04-01T04:52:44;14.10;91.90
13412;DHT22;67102;51.666;6.880;2023-04-01T04:55:10;14.10;91.90
13412;DHT22;67102;51.666;6.880;2023-04-01T04:57:36;14.20;92.00
13412;DHT22;67102;51.666;6.880;2023-04-01T05:00:05;14.10;91.90
13412;DHT22;67102;51.666;6.880;2023-04-01T05:02:32;14.10;91.80
13412;DHT22;67102;51.666;6.880;2023-04-01T05:07:24;14.20;91.90
13412;DHT22;67102;51.666;6.880;2023-04-01T05:14:42;14.10;92.00
13412;DHT22;67102;51.666;6.880;2023-04-01T05:17:10;14.10;91.90
13412;DHT22;67102;51.666;6.880;2023-04-01T05:19:37;14.20;91.90
13412;DHT22;67102;51.666;6.880;2023-04-01T05:24:30;14.20;91.80
13412;DHT22;67102;51.666;6.880;2023-04-01T05:31:50;14.30;92.00
13412;DHT22;67102;51.666;6.880;2023-04-01T05:34:17;14.50;92.10
13412;DHT22;67102;51.666;6.880;2023-04-01T05:36:44;14.10;92.10
13412;DHT22;67102;51.666;6.880;2023-04-01T05:39:10;14.10;92.00
13412;DHT22;67102;51.666;6.880;2023-04-01T05:41:36;14.10;92.00
13412;DHT22;67102;51.666;6.880;2023-04-01T05:44:02;14.10;92.10
13412;DHT22;67102;51.666;6.880;2023-04-01T05:46:28;14.20;92.10
13412;DHT22;67102;51.666;6.880;2023-04-01T05:48:55;14.10;92.10
13412;DHT22;67102;51.666;6.880;2023-04-01T05:51:22;14.10;92.10
13412;DHT22;67102;51.666;6.880;2023-04-01T05:56:15;14.10;92.40
13412;DHT22;67102;51.666;6.880;2023-04-01T05:58:40;14.10;92.50
13412;DHT22;67102;51.666;6.880;2023-04-01T06:01:08;14.10;92.40
13412;DHT22;67102;51.666;6.880;2023-04-01T06:06:03;14.10;92.50
13412;DHT22;67102;51.666;6.880;2023-04-01T06:08:31;14.10;92.50
13412;DHT22;67102;51.666;6.880;2023-04-01T06:11:11;14.10;92.40
13412;DHT22;67102;51.666;6.880;2023-04-01T06:14:02;14.20;92.40
13412;DHT22;67102;51.666;6.880;2023-04-01T06:16:43;14.20;92.30
13412;DHT22;67102;51.666;6.880;2023-04-01T06:19:27;14.20;92.30
13412;DHT22;67102;51.666;6.880;2023-04-01T06:25:29;18.40;93.40
13412;DHT22;67102;51.666;6.880;2023-04-01T06:28:56;14.20;92.30
13412;DHT22;67102;51.666;6.880;2023-04-01T06:31:41;14.10;92.10
13412;DHT22;67102;51.666;6.880;2023-04-01T06:34:28;14.00;92.10
13412;DHT22;67102;51.666;6.880;2023-04-01T06:37:24;14.20;92.10
13412;DHT22;67102;51.666;6.880;2023-04-01T06:40:16;14.20;92.10
13412;DHT22;67102;51.666;6.880;2023-04-01T06:43:02;14.30;92.20
13412;DHT22;67102;51.666;6.880;2023-04-01T06:45:39;14.30;92.10
13412;DHT22;67102;51.666;6.880;2023-04-01T06:48:23;14.30;92.20
13412;DHT22;67102;51.666;6.880;2023-04-01T06:51:02;14.30;92.10
13412;DHT22;67102;51.666;6.880;2023-04-01T06:53:43;14.30;92.10
13412;DHT22;67102;51.666;6.880;2023-04-01T06:56:18;14.40;92.10
13412;DHT22;67102;51.666;6.880;2023-04-01T06:58:47;14.20;92.00
13412;DHT22;67102;51.666;6.880;2023-04-01T07:01:19;14.40;92.00
13412;DHT22;67102;51.666;6.880;2023-04-01T07:03:53;14.50;92.00
13412;DHT22;67102;51.666;6.880;2023-04-01T07:06:26;14.50;92.00
13412;DHT22;67102;51.666;6.880;2023-04-01T07:08:54;14.50;92.00
13412;DHT22;67102;51.666;6.880;2023-04-01T07:11:26;14.50;92.00
13412;DHT22;67102;51.666;6.880;2023-04-01T07:13:58;14.40;92.00
13412;DHT22;67102;51.666;6.880;2023-04-01T07:16:29;14.60;92.00
13412;DHT22;67102;51.666;6.880;2023-04-01T07:19:00;14.60;92.00
13412;DHT22;67102;51.666;6.880;2023-04-01T07:21:32;14.60;92.20
13412;DHT22;67102;51.666;6.880;2023-04-01T07:24:04;14.60;91.90
13412;DHT22;67102;51.666;6.880;2023-04-01T07:26:33;14.60;91.80
13412;DHT22;67102;51.666;6.880;2023-04-01T07:28:59;14.60;91.80
13412;DHT22;67102;51.666;6.880;2023-04-01T07:31:38;14.60;91.80
13412;DHT22;67102;51.666;6.880;2023-04-01T07:34:17;14.60;91.80
13412;DHT22;67102;51.666;6.880;2023-04-01T07:36:48;14.60;91.90
13412;DHT22;67102;51.666;6.880;2023-04-01T07:39:28;14.60;92.00
13412;DHT22;67102;51.666;6.880;2023-04-01T07:42:04;14.60;92.20
13412;DHT22;67102;51.666;6.880;2023-04-01T07:44:39;14.60;92.30
13412;DHT22;67102;51.666;6.880;2023-04-01T07:47:21;14.60;92.30
13412;DHT22;67102;51.666;6.880;2023-04-01T07:50:04;14.60;92.30
13412;DHT22;67102;51.666;6.880;2023-04-01T07:52:42;14.70;92.30
13412;DHT22;67102;51.666;6.880;2023-04-01T07:55:15;14.70;92.50
13412;DHT22;67102;51.666;6.880;2023-04-01T07:57:51;14.70;92.50
13412;DHT22;67102;51.666;6.880;2023-04-01T08:00:24;14.70;92.70
13412;DHT22;67102;51.666;6.880;2023-04-01T08:03:09;14.70;92.60
13412;DHT22;67102;51.666;6.880;2023-04-01T08:05:53;14.70;92.70
13412;DHT22;67102;51.666;6.880;2023-04-01T08:08:31;14.80;92.80
13412;DHT22;67102;51.666;6.880;2023-04-01T08:11:09;14.80;92.80
13412;DHT22;67102;51.666;6.880;2023-04-01T08:13:45;14.80;92.80
13412;DHT22;67102;51.666;6.880;2023-04-01T08:16:23;14.80;92.80
13412;DHT22;67102;51.666;6.880;2023-04-01T08:18:58;14.80;92.70
13412;DHT22;67102;51.666;6.880;2023-04-01T08:21:32;14.90;92.80
13412;DHT22;67102;51.666;6.880;2023-04-01T08:24:08;14.90;92.80
13412;DHT22;67102;51.666;6.880;2023-04-01T08:26:51;14.90;92.80
13412;DHT22;67102;51.666;6.880;2023-04-01T08:29:23;14.90;92.70
13412;DHT22;67102;51.666;6.880;2023-04-01T08:31:54;14.90;92.80
13412;DHT22;67102;51.666;6.880;2023-04-01T08:34:25;14.90;92.80
13412;DHT22;67102;51.666;6.880;2023-04-01T08:36:58;14.90;92.80
13412;DHT22;67102;51.666;6.880;2023-04-01T08:39:29;15.00;92.80
13412;DHT22;67102;51.666;6.880;2023-04-01T08:42:07;15.00;92.80
13412;DHT22;67102;51.666;6.880;2023-04-01T08:45:10;15.10;92.80
13412;DHT22;67102;51.666;6.880;2023-04-01T08:48:04;15.00;92.80
13412;DHT22;67102;51.666;6.880;2023-04-01T08:51:01;15.20;92.90
13412;DHT22;67102;51.666;6.880;2023-04-01T08:54:04;15.20;92.80
13412;DHT22;67102;51.666;6.880;2023-04-01T08:56:42;15.20;92.70
13412;DHT22;67102;51.666;6.880;2023-04-01T08:59:27;15.20;92.80
13412;DHT22;67102;51.666;6.880;2023-04-01T09:02:18;15.30;92.80
13412;DHT22;67102;51.666;6.880;2023-04-01T09:08:00;15.40;92.60
13412;DHT22;67102;51.666;6.880;2023-04-01T09:13:55;15.50;92.70
13412;DHT22;67102;51.666;6.880;2023-04-01T09:19:33;15.60;92.80
13412;DHT22;67102;51.666;6.880;2023-04-01T09:22:19;15.70;92.60
13412;DHT22;67102;51.666;6.880;2023-04-01T09:25:15;15.80;92.50
13412;DHT22;67102;51.666;6.880;2023-04-01T09:27:55;15.70;92.40
13412;DHT22;67102;51.666;6.880;2023-04-01T09:30:34;15.80;92.50
13412;DHT22;67102;51.666;6.880;2023-04-01T09:33:22;15.80;92.30
13412;DHT22;67102;51.666;6.880;2023-04-01T09:36:12;15.90;92.40
13412;DHT22;67102;51.666;6.880;2023-04-01T09:38:56;15.90;92.30
13412;DHT22;67102;51.666;6.880;2023-04-01T09:41:31;19.20;93.10
13412;DHT22;67102;51.666;6.880;2023-04-01T09:44:02;16.00;92.20
13412;DHT22;67102;51.666;6.880;2023-04-01T09:46:49;16.00;92.20
13412;DHT22;67102;51.666;6.880;2023-04-01T09:49:54;16.00;92.10
13412;DHT22;67102;51.666;6.880;2023-04-01T09:52:33;16.00;92.00
13412;DHT22;67102;51.666;6.880;2023-04-01T09:55:27;16.10;91.90
13412;DHT22;67102;51.666;6.880;2023-04-01T10:25:19;16.30;91.90
13412;DHT22;67102;51.666;6.880;2023-04-01T10:28:34;16.40;91.90
13412;DHT22;67102;51.666;6.880;2023-04-01T10:31:23;16.40;92.00
13412;DHT22;67102;51.666;6.880;2023-04-01T10:37:42;16.60;92.50
13412;DHT22;67102;51.666;6.880;2023-04-01T10:40:37;16.70;92.60
13412;DHT22;67102;51.666;6.880;2023-04-01T10:43:57;16.80;92.70
13412;DHT22;67102;51.666;6.880;2023-04-01T10:46:53;16.90;92.60
13412;DHT22;67102;51.666;6.880;2023-04-01T10:50:17;17.00;92.20
13412;DHT22;67102;51.666;6.880;2023-04-01T10:56:15;17.10;91.80
13412;DHT22;67102;51.666;6.880;2023-04-01T10:59:36;17.10;91.60
13412;DHT22;67102;51.666;6.880;2023-04-01T11:03:02;17.20;91.90
13412;DHT22;67102;51.666;6.880;2023-04-01T11:06:30;17.20;92.20
13412;DHT22;67102;51.666;6.880;2023-04-01T11:09:36;17.30;92.30
13412;DHT22;67102;51.666;6.880;2023-04-01T11:12:34;17.40;92.10
13412;DHT22;67102;51.666;6.880;2023-04-01T11:15:50;17.40;91.70
13412;DHT22;67102;51.666;6.880;2023-04-01T11:19:02;17.50;91.30
13412;DHT22;67102;51.666;6.880;2023-04-01T11:22:06;17.50;90.90
13412;DHT22;67102;51.666;6.880;2023-04-01T11:31:11;17.40;90.40
13412;DHT22;67102;51.666;6.880;2023-04-01T11:33:52;17.20;90.30
13412;DHT22;67102;51.666;6.880;2023-04-01T11:36:33;17.20;90.30
13412;DHT22;67102;51.666;6.880;2023-04-01T11:39:15;17.20;90.30
13412;DHT22;67102;51.666;6.880;2023-04-01T11:41:51;17.10;90.40
13412;DHT22;67102;51.666;6.880;2023-04-01T11:44:24;17.10;90.50
13412;DHT22;67102;51.666;6.880;2023-04-01T11:47:30;17.10;90.50
13412;DHT22;67102;51.666;6.880;2023-04-01T11:50:22;17.00;90.60
13412;DHT22;67102;51.666;6.880;2023-04-01T11:53:12;17.00;90.60
13412;DHT22;67102;51.666;6.880;2023-04-01T11:55:51;16.90;90.40
13412;DHT22;67102;51.666;6.880;2023-04-01T11:58:36;16.90;90.60
13412;DHT22;67102;51.666;6.880;2023-04-01T12:01:16;16.90;90.80
13412;DHT22;67102;51.666;6.880;2023-04-01T12:04:04;16.90;90.90
13412;DHT22;67102;51.666;6.880;2023-04-01T12:06:54;16.80;90.80
13412;DHT22;67102;51.666;6.880;2023-04-01T12:09:31;17.00;90.80
13412;DHT22;67102;51.666;6.880;2023-04-01T12:12:13;16.90;90.70
13412;DHT22;67102;51.666;6.880;2023-04-01T12:14:52;16.90;90.60
13412;DHT22;67102;51.666;6.880;2023-04-01T12:17:30;16.80;90.40
13412;DHT22;67102;51.666;6.880;2023-04-01T12:20:26;16.80;90.30
13412;DHT22;67102;51.666;6.880;2023-04-01T12:23:04;16.70;90.40
13412;DHT22;67102;51.666;6.880;2023-04-01T12:26:05;16.70;90.60
13412;DHT22;67102;51.666;6.880;2023-04-01T12:28:44;16.70;90.60
13412;DHT22;67102;51.666;6.880;2023-04-01T12:31:22;16.70;90.70
13412;DHT22;67102;51.666;6.880;2023-04-01T12:34:03;16.70;90.70
13412;DHT22;67102;51.666;6.880;2023-04-01T12:36:54;16.70;90.80
13412;DHT22;67102;51.666;6.880;2023-04-01T12:39:48;16.70;90.90
13412;DHT22;67102;51.666;6.880;2023-04-01T12:42:44;16.70;90.90
13412;DHT22;67102;51.666;6.880;2023-04-01T12:45:27;16.70;90.80
13412;DHT22;67102;51.666;6.880;2023-04-01T12:54:45;16.80;90.60
13412;DHT22;67102;51.666;6.880;2023-04-01T13:01:05;16.60;90.40
13412;DHT22;67102;51.666;6.880;2023-04-01T13:03:58;16.70;90.40
13412;DHT22;67102;51.666;6.880;2023-04-01T13:06:53;16.70;90.30
13412;DHT22;67102;51.666;6.880;2023-04-01T13:09:36;16.70;90.30
13412;DHT22;67102;51.666;6.880;2023-04-01T13:12:25;15.70;90.10
13412;DHT22;67102;51.666;6.880;2023-04-01T13:15:16;16.70;90.50
13412;DHT22;67102;51.666;6.880;2023-04-01T13:17:52;16.70;90.60
13412;DHT22;67102;51.666;6.880;2023-04-01T13:20:26;16.70;90.60
13412;DHT22;67102;51.666;6.880;2023-04-01T13:23:10;16.70;90.50
13412;DHT22;67102;51.666;6.880;2023-04-01T13:25:47;16.70;90.50
13412;DHT22;67102;51.666;6.880;2023-04-01T13:28:22;16.70;90.50
13412;DHT22;67102;51.666;6.880;2023-04-01T13:30:55;16.70;90.50
13412;DHT22;67102;51.666;6.880;2023-04-01T13:33:31;16.70;90.50
13412;DHT22;67102;51.666;6.880;2023-04-01T13:36:16;16.70;90.60
13412;DHT22;67102;51.666;6.880;2023-04-01T13:38:59;16.70;90.70
13412;DHT22;67102;51.666;6.880;2023-04-01T13:41:47;16.70;90.80
13412;DHT22;67102;51.666;6.880;2023-04-01T13:44:22;16.80;90.90
13412;DHT22;67102;51.666;6.880;2023-04-01T13:47:17;16.80;90.90
13412;DHT22;67102;51.666;6.880;2023-04-01T13:50:26;16.90;91.00
13412;DHT22;67102;51.666;6.880;2023-04-01T13:53:27;16.90;91.00
13412;DHT22;67102;51.666;6.880;2023-04-01T13:56:16;17.00;91.10
13412;DHT22;67102;51.666;6.880;2023-04-01T14:02:30;17.10;91.10
13412;DHT22;67102;51.666;6.880;2023-04-01T14:05:32;17.10;91.20
13412;DHT22;67102;51.666;6.880;2023-04-01T14:08:09;17.20;91.20
13412;DHT22;67102;51.666;6.880;2023-04-01T14:10:45;17.30;91.10
13412;DHT22;67102;51.666;6.880;2023-04-01T14:13:23;17.30;90.90
13412;DHT22;67102;51.666;6.880;2023-04-01T14:16:03;17.40;90.90
13412;DHT22;67102;51.666;6.880;2023-04-01T14:18:45;17.50;90.90
13412;DHT22;67102;51.666;6.880;2023-04-01T14:21:32;17.50;90.90
13412;DHT22;67102;51.666;6.880;2023-04-01T14:24:29;17.50;90.80
13412;DHT22;67102;51.666;6.880;2023-04-01T14:27:21;17.60;90.90
13412;DHT22;67102;51.666;6.880;2023-04-01T14:30:23;17.60;90.90
13412;DHT22;67102;51.666;6.880;2023-04-01T14:33:00;17.70;90.90
13412;DHT22;67102;51.666;6.880;2023-04-01T14:35:37;17.80;90.90
13412;DHT22;67102;51.666;6.880;2023-04-01T14:41:19;17.90;90.40
13412;DHT22;67102;51.666;6.880;2023-04-01T14:44:18;17.90;90.20
13412;DHT22;67102;51.666;6.880;2023-04-01T14:47:08;18.00;90.10
13412;DHT22;67102;51.666;6.880;2023-04-01T14:49:43;17.90;90.00
13412;DHT22;67102;51.666;6.880;2023-04-01T14:52:14;17.90;90.00
13412;DHT22;67102;51.666;6.880;2023-04-01T14:54:44;17.90;89.80
13412;DHT22;67102;51.666;6.880;2023-04-01T14:57:13;17.90;89.20
13412;DHT22;67102;51.666;6.880;2023-04-01T14:59:41;17.90;89.20
13412;DHT22;67102;51.666;6.880;2023-04-01T15:05:16;17.80;89.00
13412;DHT22;67102;51.666;6.880;2023-04-01T15:11:04;17.60;88.10
13412;DHT22;67102;51.666;6.880;2023-04-01T15:13:58;17.60;88.10
13412;DHT22;67102;51.666;6.880;2023-04-01T15:16:47;17.50;88.20
13412;DHT22;67102;51.666;6.880;2023-04-01T15:19:31;17.40;88.30
13412;DHT22;67102;51.666;6.880;2023-04-01T15:22:27;17.30;88.50
13412;DHT22;67102;51.666;6.880;2023-04-01T15:25:18;17.30;88.60
13412;DHT22;67102;51.666;6.880;2023-04-01T15:27:52;17.20;88.70
13412;DHT22;67102;51.666;6.880;2023-04-01T15:30:30;17.20;89.00
13412;DHT22;67102;51.666;6.880;2023-04-01T15:33:11;17.10;89.10
13412;DHT22;67102;51.666;6.880;2023-04-01T15:35:51;17.10;89.20
13412;DHT22;67102;51.666;6.880;2023-04-01T15:38:31;17.10;89.50
13412;DHT22;67102;51.666;6.880;2023-04-01T15:41:07;17.10;89.80
13412;DHT22;67102;51.666;6.880;2023-04-01T15:43:41;17.10;89.90
13412;DHT22;67102;51.666;6.880;2023-04-01T15:46:25;17.10;90.10
13412;DHT22;67102;51.666;6.880;2023-04-01T15:49:09;17.10;90.10
13412;DHT22;67102;51.666;6.880;2023-04-01T15:54:49;17.20;90.20
13412;DHT22;67102;51.666;6.880;2023-04-01T15:57:29;17.20;90.30
13412;DHT22;67102;51.666;6.880;2023-04-01T16:00:23;17.20;90.20
13412;DHT22;67102;51.666;6.880;2023-04-01T16:03:00;17.20;90.30
13412;DHT22;67102;51.666;6.880;2023-04-01T16:05:45;17.30;90.30
13412;DHT22;67102;51.666;6.880;2023-04-01T16:08:54;17.30;90.30
13412;DHT22;67102;51.666;6.880;2023-04-01T16:11:31;17.40;90.30
13412;DHT22;67102;51.666;6.880;2023-04-01T16:14:11;17.40;90.20
13412;DHT22;67102;51.666;6.880;2023-04-01T16:17:00;17.40;90.30
13412;DHT22;67102;51.666;6.880;2023-04-01T16:19:37;17.50;90.30
13412;DHT22;67102;51.666;6.880;2023-04-01T16:22:13;17.50;90.20
13412;DHT22;67102;51.666;6.880;2023-04-01T16:24:48;17.50;90.10
13412;DHT22;67102;51.666;6.880;2023-04-01T16:27:23;17.50;90.10
13412;DHT22;67102;51.666;6.880;2023-04-01T16:29:55;13.80;88.00
13412;DHT22;67102;51.666;6.880;2023-04-01T16:32:38;17.40;90.00
13412;DHT22;67102;51.666;6.880;2023-04-01T16:35:22;17.50;90.00
13412;DHT22;67102;51.666;6.880;2023-04-01T16:37:59;17.50;90.00
13412;DHT22;67102;51.666;6.880;2023-04-01T16:40:39;17.50;90.00
13412;DHT22;67102;51.666;6.880;2023-04-01T16:43:13;17.50;89.90
13412;DHT22;67102;51.666;6.880;2023-04-01T16:45:53;17.40;89.80
13412;DHT22;67102;51.666;6.880;2023-04-01T16:48:27;17.40;89.90
13412;DHT22;67102;51.666;6.880;2023-04-01T16:50:59;17.40;89.90
13412;DHT22;67102;51.666;6.880;2023-04-01T16:53:36;17.40;89.90
13412;DHT22;67102;51.666;6.880;2023-04-01T16:56:12;17.30;90.00
13412;DHT22;67102;51.666;6.880;2023-04-01T16:58:43;17.40;89.90
13412;DHT22;67102;51.666;6.880;2023-04-01T17:01:26;17.30;89.50
13412;DHT22;67102;51.666;6.880;2023-04-01T17:03:58;17.40;89.50
13412;DHT22;67102;51.666;6.880;2023-04-01T17:06:33;17.30;89.40
13412;DHT22;67102;51.666;6.880;2023-04-01T17:09:15;17.30;89.50
13412;DHT22;67102;51.666;6.880;2023-04-01T17:11:56;17.30;89.50
13412;DHT22;67102;51.666;6.880;2023-04-01T17:14:29;17.20;89.50
13412;DHT22;67102;51.666;6.880;2023-04-01T17:17:18;17.20;89.40
13412;DHT22;67102;51.666;6.880;2023-04-01T17:20:11;17.20;89.00
13412;DHT22;67102;51.666;6.880;2023-04-01T17:22:45;17.10;88.70
13412;DHT22;67102;51.666;6.880;2023-04-01T17:25:26;17.00;88.60
13412;DHT22;67102;51.666;6.880;2023-04-01T17:28:08;16.90;88.80
13412;DHT22;67102;51.666;6.880;2023-04-01T17:30:44;16.90;89.20
13412;DHT22;67102;51.666;6.880;2023-04-01T17:39:27;16.80;89.60
13412;DHT22;67102;51.666;6.880;2023-04-01T17:42:05;16.80;89.50
13412;DHT22;67102;51.666;6.880;2023-04-01T17:44:41;16.80;89.50
13412;DHT22;67102;51.666;6.880;2023-04-01T17:47:28;16.70;89.20
13412;DHT22;67102;51.666;6.880;2023-04-01T17:50:10;16.60;89.10
13412;DHT22;67102;51.666;6.880;2023-04-01T17:52:46;16.40;89.00
13412;DHT22;67102;51.666;6.880;2023-04-01T17:55:38;16.50;89.30
13412;DHT22;67102;51.666;6.880;2023-04-01T17:58:17;16.30;89.30
13412;DHT22;67102;51.666;6.880;2023-04-01T18:01:13;16.40;89.50
13412;DHT22;67102;51.666;6.880;2023-04-01T18:03:57;16.30;89.70
13412;DHT22;67102;51.666;6.880;2023-04-01T18:06:47;16.20;89.70
13412;DHT22;67102;51.666;6.880;2023-04-01T18:09:28;16.10;89.50
13412;DHT22;67102;51.666;6.880;2023-04-01T18:12:09;16.00;89.80
13412;DHT22;67102;51.666;6.880;2023-04-01T18:14:53;15.80;90.00
13412;DHT22;67102;51.666;6.880;2023-04-01T18:17:51;15.60;90.10
13412;DHT22;67102;51.666;6.880;2023-04-01T18:20:33;15.50;90.40
13412;DHT22;67102;51.666;6.880;2023-04-01T18:23:06;15.30;90.70
13412;DHT22;67102;51.666;6.880;2023-04-01T18:25:41;15.20;90.80
13412;DHT22;67102;51.666;6.880;2023-04-01T18:28:22;15.10;91.00
13412;DHT22;67102;51.666;6.880;2023-04-01T18:30:53;15.00;91.10
13412;DHT22;67102;51.666;6.880;2023-04-01T18:33:25;14.90;91.30
13412;DHT22;67102;51.666;6.880;2023-04-01T18:35:58;14.80;91.50
13412;DHT22;67102;51.666;6.880;2023-04-01T18:38:36;14.70;91.70
13412;DHT22;67102;51.666;6.880;2023-04-01T18:41:13;14.60;91.80
13412;DHT22;67102;51.666;6.880;2023-04-01T18:43:48;14.60;91.80
13412;DHT22;67102;51.666;6.880;2023-04-01T18:46:21;14.50;92.00
13412;DHT22;67102;51.666;6.880;2023-04-01T18:49:00;14.40;92.10
13412;DHT22;67102;51.666;6.880;2023-04-01T18:51:38;14.40;92.20
13412;DHT22;67102;51.666;6.880;2023-04-01T18:54:12;14.20;92.30
13412;DHT22;67102;51.666;6.880;2023-04-01T18:56:44;14.20;92.40
13412;DHT22;67102;51.666;6.880;2023-04-01T18:59:14;14.10;92.40
13412;DHT22;67102;51.666;6.880;2023-04-01T19:01:52;14.10;92.60
13412;DHT22;67102;51.666;6.880;2023-04-01T19:04:31;14.00;92.60
13412;DHT22;67102;51.666;6.880;2023-04-01T19:07:00;13.90;92.50
13412;DHT22;67102;51.666;6.880;2023-04-01T19:09:47;13.90;92.60
13412;DHT22;67102;51.666;6.880;2023-04-01T19:12:32;13.90;92.50
13412;DHT22;67102;51.666;6.880;2023-04-01T19:15:16;13.80;92.60
13412;DHT22;67102;51.666;6.880;2023-04-01T19:17:58;13.70;92.60
13412;DHT22;67102;51.666;6.880;2023-04-01T19:20:37;13.50;92.70
13412;DHT22;67102;51.666;6.880;2023-04-01T19:26:17;13.60;92.90
13412;DHT22;67102;51.666;6.880;2023-04-01T19:28:54;13.60;92.90
13412;DHT22;67102;51.666;6.880;2023-04-01T19:31:33;13.50;93.00
13412;DHT22;67102;51.666;6.880;2023-04-01T19:34:14;13.40;93.00
13412;DHT22;67102;51.666;6.880;2023-04-01T19:36:51;13.40;93.10
13412;DHT22;67102;51.666;6.880;2023-04-01T19:39:31;13.40;93.10
13412;DHT22;67102;51.666;6.880;2023-04-01T19:42:09;13.40;93.20
13412;DHT22;67102;51.666;6.880;2023-04-01T19:44:49;13.40;93.10
13412;DHT22;67102;51.666;6.880;2023-04-01T19:47:24;13.30;93.10
13412;DHT22;67102;51.666;6.880;2023-04-01T19:50:08;13.30;93.10